sensor_id;sensor_type;location;lat;lon;timestamp;temperature;humidity
16511;DHT22;8368;48.772;8.754;2022-12-18T00:01:32;-9.90;99.90
16511;DHT22;8368;48.772;8.754;2022-12-18T00:04:00;-9.80;99.90
16511;DHT22;8368;48.772;8.754;2022-12-18T00:06:27;-9.80;99.90
16511;DHT22;8368;48.772;8.754;2022-12-18T00:08:55;-9.80;99.90
16511;DHT22;8368;48.772;8.754;2022-12-18T00:11:23;-9.80;99.90
16511;DHT22;8368;48.772;8.754;2022-12-18T00:13:50;-9.80;99.90
16511;DHT22;8368;48.772;8.754;2022-12-18T00:16:18;-9.90;99.90
16511;DHT22;8368;48.772;8.754;2022-12-18T00:18:49;-9.90;99.90
16511;DHT22;8368;48.772;8.754;2022-12-18T00:21:15;-9.90;99.90
16511;DHT22;8368;48.772;8.754;2022-12-18T00:23:42;-9.90;99.90
16511;DHT22;8368;48.772;8.754;2022-12-18T00:26:12;-9.90;99.90
16511;DHT22;8368;48.772;8.754;2022-12-18T00:28:38;-9.80;99.90
16511;DHT22;8368;48.772;8.754;2022-12-18T00:31:09;-9.90;99.90
16511;DHT22;8368;48.772;8.754;2022-12-18T00:33:35;-9.90;99.90
16511;DHT22;8368;48.772;8.754;2022-12-18T00:36:02;-9.90;99.90
16511;DHT22;8368;48.772;8.754;2022-12-18T00:38:28;-9.90;99.90
16511;DHT22;8368;48.772;8.754;2022-12-18T00:40:54;-9.90;99.90
16511;DHT22;8368;48.772;8.754;2022-12-18T00:43:19;-9.90;99.90
16511;DHT22;8368;48.772;8.754;2022-12-18T00:45:45;-9.90;99.90
16511;DHT22;8368;48.772;8.754;2022-12-18T00:48:11;-9.90;99.90
16511;DHT22;8368;48.772;8.754;2022-12-18T00:50:36;-10.00;99.90
16511;DHT22;8368;48.772;8.754;2022-12-18T00:53:02;-10.00;99.90
16511;DHT22;8368;48.772;8.754;2022-12-18T00:55:27;-10.00;99.90
16511;DHT22;8368;48.772;8.754;2022-12-18T00:57:53;-10.00;99.90
16511;DHT22;8368;48.772;8.754;2022-12-18T01:00:18;-10.00;99.90
16511;DHT22;8368;48.772;8.754;2022-12-18T01:02:44;-10.00;99.90
16511;DHT22;8368;48.772;8.754;2022-12-18T01:05:11;-10.00;99.90
16511;DHT22;8368;48.772;8.754;2022-12-18T01:07:37;-10.00;99.90
16511;DHT22;8368;48.772;8.754;2022-12-18T01:10:04;-9.90;99.90
16511;DHT22;8368;48.772;8.754;2022-12-18T01:12:30;-9.90;99.90
16511;DHT22;8368;48.772;8.754;2022-12-18T01:14:56;-9.80;99.90
16511;DHT22;8368;48.772;8.754;2022-12-18T01:17:22;-9.80;99.90
16511;DHT22;8368;48.772;8.754;2022-12-18T01:19:48;-9.70;99.90
16511;DHT22;8368;48.772;8.754;2022-12-18T01:22:13;-9.70;99.90
16511;DHT22;8368;48.772;8.754;2022-12-18T01:24:39;-9.60;99.90
16511;DHT22;8368;48.772;8.754;2022-12-18T01:27:04;-9.60;99.90
16511;DHT22;8368;48.772;8.754;2022-12-18T01:29:30;-9.50;99.90
16511;DHT22;8368;48.772;8.754;2022-12-18T01:31:56;-9.50;99.90
16511;DHT22;8368;48.772;8.754;2022-12-18T01:34:23;-9.50;99.90
16511;DHT22;8368;48.772;8.754;2022-12-18T01:36:48;-9.50;99.90
16511;DHT22;8368;48.772;8.754;2022-12-18T01:39:15;-9.40;99.90
16511;DHT22;8368;48.772;8.754;2022-12-18T01:41:41;-9.30;99.90
16511;DHT22;8368;48.772;8.754;2022-12-18T01:47:37;-9.10;99.90
16511;DHT22;8368;48.772;8.754;2022-12-18T01:52:37;-8.80;99.90
16511;DHT22;8368;48.772;8.754;2022-12-18T01:55:05;-8.80;99.90
16511;DHT22;8368;48.772;8.754;2022-12-18T01:57:31;-8.70;99.90
16511;DHT22;8368;48.772;8.754;2022-12-18T02:00:02;-8.70;99.90
16511;DHT22;8368;48.772;8.754;2022-12-18T02:02:29;-8.70;99.90
16511;DHT22;8368;48.772;8.754;2022-12-18T02:04:55;-8.60;99.90
16511;DHT22;8368;48.772;8.754;2022-12-18T02:10:10;-8.60;99.90
16511;DHT22;8368;48.772;8.754;2022-12-18T02:12:43;-8.60;99.90
16511;DHT22;8368;48.772;8.754;2022-12-18T02:15:17;-8.50;99.90
16511;DHT22;8368;48.772;8.754;2022-12-18T02:17:52;-8.40;99.90
16511;DHT22;8368;48.772;8.754;2022-12-18T02:20:35;-8.40;99.90
16511;DHT22;8368;48.772;8.754;2022-12-18T02:28:34;-8.50;99.90
16511;DHT22;8368;48.772;8.754;2022-12-18T02:31:03;-8.50;99.90
16511;DHT22;8368;48.772;8.754;2022-12-18T02:33:31;-8.60;99.90
16511;DHT22;8368;48.772;8.754;2022-12-18T02:36:00;-8.60;99.90
16511;DHT22;8368;48.772;8.754;2022-12-18T02:38:28;-8.60;99.90
16511;DHT22;8368;48.772;8.754;2022-12-18T02:40:54;-8.60;99.90
16511;DHT22;8368;48.772;8.754;2022-12-18T02:43:21;-8.60;99.90
16511;DHT22;8368;48.772;8.754;2022-12-18T02:45:58;-8.70;99.90
16511;DHT22;8368;48.772;8.754;2022-12-18T02:48:35;-8.70;99.90
16511;DHT22;8368;48.772;8.754;2022-12-18T02:51:13;-8.70;99.90
16511;DHT22;8368;48.772;8.754;2022-12-18T02:53:58;-8.70;99.90
16511;DHT22;8368;48.772;8.754;2022-12-18T02:56:53;-8.70;99.90
16511;DHT22;8368;48.772;8.754;2022-12-18T02:59:21;-8.70;99.90
16511;DHT22;8368;48.772;8.754;2022-12-18T03:02:01;-8.60;99.90
16511;DHT22;8368;48.772;8.754;2022-12-18T03:06:59;-8.50;99.90
16511;DHT22;8368;48.772;8.754;2022-12-18T03:09:37;-8.50;99.90
16511;DHT22;8368;48.772;8.754;2022-12-18T03:12:16;-8.50;99.90
16511;DHT22;8368;48.772;8.754;2022-12-18T03:17:36;-8.40;99.90
16511;DHT22;8368;48.772;8.754;2022-12-18T03:20:13;-8.40;99.90
16511;DHT22;8368;48.772;8.754;2022-12-18T03:22:42;-8.40;99.90
16511;DHT22;8368;48.772;8.754;2022-12-18T03:25:11;-8.50;99.90
16511;DHT22;8368;48.772;8.754;2022-12-18T03:27:46;-8.50;99.90
16511;DHT22;8368;48.772;8.754;2022-12-18T03:30:14;-8.50;99.90
16511;DHT22;8368;48.772;8.754;2022-12-18T03:35:35;-8.50;99.90
16511;DHT22;8368;48.772;8.754;2022-12-18T03:38:01;-8.60;99.90
16511;DHT22;8368;48.772;8.754;2022-12-18T03:40:53;-8.60;99.90
16511;DHT22;8368;48.772;8.754;2022-12-18T03:43:26;-8.60;99.90
16511;DHT22;8368;48.772;8.754;2022-12-18T03:46:08;-8.60;99.90
16511;DHT22;8368;48.772;8.754;2022-12-18T03:48:48;-8.70;99.90
16511;DHT22;8368;48.772;8.754;2022-12-18T03:51:23;-8.70;99.90
16511;DHT22;8368;48.772;8.754;2022-12-18T03:53:57;-8.70;99.90
16511;DHT22;8368;48.772;8.754;2022-12-18T03:56:26;-8.80;99.90
16511;DHT22;8368;48.772;8.754;2022-12-18T03:58:53;-8.70;99.90
16511;DHT22;8368;48.772;8.754;2022-12-18T04:01:24;-8.70;99.90
16511;DHT22;8368;48.772;8.754;2022-12-18T04:03:51;-8.70;99.90
16511;DHT22;8368;48.772;8.754;2022-12-18T04:06:17;-8.70;99.90
16511;DHT22;8368;48.772;8.754;2022-12-18T04:08:44;-8.80;99.90
16511;DHT22;8368;48.772;8.754;2022-12-18T04:11:10;-8.80;99.90
16511;DHT22;8368;48.772;8.754;2022-12-18T04:13:37;-8.80;99.90
16511;DHT22;8368;48.772;8.754;2022-12-18T04:16:03;-8.90;99.90
16511;DHT22;8368;48.772;8.754;2022-12-18T04:18:28;-8.90;99.90
16511;DHT22;8368;48.772;8.754;2022-12-18T04:20:54;-8.90;99.90
16511;DHT22;8368;48.772;8.754;2022-12-18T04:23:19;-8.80;99.90
16511;DHT22;8368;48.772;8.754;2022-12-18T04:25:46;-8.80;99.90
16511;DHT22;8368;48.772;8.754;2022-12-18T04:28:12;-8.80;99.90
16511;DHT22;8368;48.772;8.754;2022-12-18T04:30:38;-8.80;99.90
16511;DHT22;8368;48.772;8.754;2022-12-18T04:33:04;-8.80;99.90
16511;DHT22;8368;48.772;8.754;2022-12-18T04:35:33;-8.80;99.90
16511;DHT22;8368;48.772;8.754;2022-12-18T04:37:58;-8.80;99.90
16511;DHT22;8368;48.772;8.754;2022-12-18T04:40:24;-8.70;99.90
16511;DHT22;8368;48.772;8.754;2022-12-18T04:42:49;-8.70;99.90
16511;DHT22;8368;48.772;8.754;2022-12-18T04:45:15;-8.70;99.90
16511;DHT22;8368;48.772;8.754;2022-12-18T04:47:40;-8.70;99.90
16511;DHT22;8368;48.772;8.754;2022-12-18T04:50:07;-8.70;99.90
16511;DHT22;8368;48.772;8.754;2022-12-18T04:52:32;-8.80;99.90
16511;DHT22;8368;48.772;8.754;2022-12-18T04:54:58;-8.70;99.90
16511;DHT22;8368;48.772;8.754;2022-12-18T04:57:23;-8.80;99.90
16511;DHT22;8368;48.772;8.754;2022-12-18T04:59:49;-8.80;99.90
16511;DHT22;8368;48.772;8.754;2022-12-18T05:02:14;-8.80;99.90
16511;DHT22;8368;48.772;8.754;2022-12-18T05:04:40;-8.90;99.90
16511;DHT22;8368;48.772;8.754;2022-12-18T05:07:05;-8.80;99.90
16511;DHT22;8368;48.772;8.754;2022-12-18T05:09:31;-8.80;99.90
16511;DHT22;8368;48.772;8.754;2022-12-18T05:11:57;-8.80;99.90
16511;DHT22;8368;48.772;8.754;2022-12-18T05:14:22;-8.70;99.90
16511;DHT22;8368;48.772;8.754;2022-12-18T05:16:48;-8.70;99.90
16511;DHT22;8368;48.772;8.754;2022-12-18T05:19:13;-8.70;99.90
16511;DHT22;8368;48.772;8.754;2022-12-18T05:21:39;-8.70;99.90
16511;DHT22;8368;48.772;8.754;2022-12-18T05:24:05;-8.70;99.90
16511;DHT22;8368;48.772;8.754;2022-12-18T05:26:30;-8.70;99.90
16511;DHT22;8368;48.772;8.754;2022-12-18T05:28:56;-8.60;99.90
16511;DHT22;8368;48.772;8.754;2022-12-18T05:31:22;-8.60;99.90
16511;DHT22;8368;48.772;8.754;2022-12-18T05:33:48;-8.50;99.90
16511;DHT22;8368;48.772;8.754;2022-12-18T05:36:13;-8.40;99.90
16511;DHT22;8368;48.772;8.754;2022-12-18T05:38:39;-8.30;99.90
16511;DHT22;8368;48.772;8.754;2022-12-18T05:41:06;-8.30;99.90
16511;DHT22;8368;48.772;8.754;2022-12-18T05:43:34;-8.30;99.90
16511;DHT22;8368;48.772;8.754;2022-12-18T05:46:21;-8.20;99.90
16511;DHT22;8368;48.772;8.754;2022-12-18T05:48:46;-8.10;99.90
16511;DHT22;8368;48.772;8.754;2022-12-18T05:51:14;-8.00;99.90
16511;DHT22;8368;48.772;8.754;2022-12-18T05:53:41;-7.90;99.90
16511;DHT22;8368;48.772;8.754;2022-12-18T05:56:09;-7.90;99.90
16511;DHT22;8368;48.772;8.754;2022-12-18T05:58:35;-7.80;99.90
16511;DHT22;8368;48.772;8.754;2022-12-18T06:01:10;-7.70;99.90
16511;DHT22;8368;48.772;8.754;2022-12-18T06:03:36;-7.70;99.90
16511;DHT22;8368;48.772;8.754;2022-12-18T06:06:02;-7.60;99.90
16511;DHT22;8368;48.772;8.754;2022-12-18T06:08:28;-7.60;99.90
16511;DHT22;8368;48.772;8.754;2022-12-18T06:10:53;-7.50;99.90
16511;DHT22;8368;48.772;8.754;2022-12-18T06:13:20;-7.50;99.90
16511;DHT22;8368;48.772;8.754;2022-12-18T06:15:46;-7.50;99.90
16511;DHT22;8368;48.772;8.754;2022-12-18T06:18:11;-7.50;99.90
16511;DHT22;8368;48.772;8.754;2022-12-18T06:20:37;-7.40;99.90
16511;DHT22;8368;48.772;8.754;2022-12-18T06:23:05;-7.30;99.90
16511;DHT22;8368;48.772;8.754;2022-12-18T06:25:31;-7.30;99.90
16511;DHT22;8368;48.772;8.754;2022-12-18T06:27:57;-7.30;99.90
16511;DHT22;8368;48.772;8.754;2022-12-18T06:30:23;-7.30;99.90
16511;DHT22;8368;48.772;8.754;2022-12-18T06:32:49;-7.30;99.90
16511;DHT22;8368;48.772;8.754;2022-12-18T06:35:15;-7.20;99.90
16511;DHT22;8368;48.772;8.754;2022-12-18T06:37:40;-7.20;99.90
16511;DHT22;8368;48.772;8.754;2022-12-18T06:40:06;-7.20;99.90
16511;DHT22;8368;48.772;8.754;2022-12-18T06:42:32;-7.10;99.90
16511;DHT22;8368;48.772;8.754;2022-12-18T06:44:58;-7.10;99.90
16511;DHT22;8368;48.772;8.754;2022-12-18T06:47:23;-7.20;99.90
16511;DHT22;8368;48.772;8.754;2022-12-18T06:49:49;-7.10;99.90
16511;DHT22;8368;48.772;8.754;2022-12-18T06:52:15;-7.10;99.90
16511;DHT22;8368;48.772;8.754;2022-12-18T06:54:41;-7.10;99.90
16511;DHT22;8368;48.772;8.754;2022-12-18T06:57:06;-7.10;99.90
16511;DHT22;8368;48.772;8.754;2022-12-18T06:59:32;-7.10;99.90
16511;DHT22;8368;48.772;8.754;2022-12-18T07:01:58;-7.10;99.90
16511;DHT22;8368;48.772;8.754;2022-12-18T07:04:30;-7.10;99.90
16511;DHT22;8368;48.772;8.754;2022-12-18T07:06:56;-7.10;99.90
16511;DHT22;8368;48.772;8.754;2022-12-18T07:09:21;-7.10;99.90
16511;DHT22;8368;48.772;8.754;2022-12-18T07:11:47;-7.10;99.90
16511;DHT22;8368;48.772;8.754;2022-12-18T07:14:12;-7.10;99.90
16511;DHT22;8368;48.772;8.754;2022-12-18T07:16:38;-7.20;99.90
16511;DHT22;8368;48.772;8.754;2022-12-18T07:19:03;-7.20;99.90
16511;DHT22;8368;48.772;8.754;2022-12-18T07:21:29;-7.20;99.90
16511;DHT22;8368;48.772;8.754;2022-12-18T07:23:54;-7.20;99.90
16511;DHT22;8368;48.772;8.754;2022-12-18T07:26:21;-7.20;99.90
16511;DHT22;8368;48.772;8.754;2022-12-18T07:28:47;-7.20;99.90
16511;DHT22;8368;48.772;8.754;2022-12-18T07:31:16;-7.10;99.90
16511;DHT22;8368;48.772;8.754;2022-12-18T07:33:44;-7.10;99.90
16511;DHT22;8368;48.772;8.754;2022-12-18T07:36:11;-7.10;99.90
16511;DHT22;8368;48.772;8.754;2022-12-18T07:38:36;-7.00;99.90
16511;DHT22;8368;48.772;8.754;2022-12-18T07:41:07;-7.10;99.90
16511;DHT22;8368;48.772;8.754;2022-12-18T07:43:34;-7.00;99.90
16511;DHT22;8368;48.772;8.754;2022-12-18T07:46:00;-7.00;99.90
16511;DHT22;8368;48.772;8.754;2022-12-18T07:48:25;-7.00;99.90
16511;DHT22;8368;48.772;8.754;2022-12-18T07:50:52;-7.00;99.90
16511;DHT22;8368;48.772;8.754;2022-12-18T07:53:17;-7.00;99.90
16511;DHT22;8368;48.772;8.754;2022-12-18T07:55:43;-7.00;99.90
16511;DHT22;8368;48.772;8.754;2022-12-18T07:58:08;-7.00;99.90
16511;DHT22;8368;48.772;8.754;2022-12-18T08:00:34;-7.00;99.90
16511;DHT22;8368;48.772;8.754;2022-12-18T08:03:00;-6.90;99.90
16511;DHT22;8368;48.772;8.754;2022-12-18T08:05:27;-6.90;99.90
16511;DHT22;8368;48.772;8.754;2022-12-18T08:07:53;-6.90;99.90
16511;DHT22;8368;48.772;8.754;2022-12-18T08:10:19;-6.80;99.90
16511;DHT22;8368;48.772;8.754;2022-12-18T08:12:45;-6.80;99.90
16511;DHT22;8368;48.772;8.754;2022-12-18T08:15:11;-6.80;99.90
16511;DHT22;8368;48.772;8.754;2022-12-18T08:17:36;-6.80;99.90
16511;DHT22;8368;48.772;8.754;2022-12-18T08:20:02;-6.80;99.90
16511;DHT22;8368;48.772;8.754;2022-12-18T08:22:27;-6.70;99.90
16511;DHT22;8368;48.772;8.754;2022-12-18T08:24:53;-6.70;99.90
16511;DHT22;8368;48.772;8.754;2022-12-18T08:27:19;-6.60;99.90
16511;DHT22;8368;48.772;8.754;2022-12-18T08:29:44;-6.50;99.90
16511;DHT22;8368;48.772;8.754;2022-12-18T08:32:10;-6.50;99.90
16511;DHT22;8368;48.772;8.754;2022-12-18T08:34:35;-6.50;99.90
16511;DHT22;8368;48.772;8.754;2022-12-18T08:37:01;-6.40;99.90
16511;DHT22;8368;48.772;8.754;2022-12-18T08:39:26;-6.30;99.90
16511;DHT22;8368;48.772;8.754;2022-12-18T08:41:52;-6.30;99.90
16511;DHT22;8368;48.772;8.754;2022-12-18T08:44:36;-6.20;99.90
16511;DHT22;8368;48.772;8.754;2022-12-18T08:47:05;-6.20;99.90
16511;DHT22;8368;48.772;8.754;2022-12-18T08:49:32;-6.20;99.90
16511;DHT22;8368;48.772;8.754;2022-12-18T08:51:57;-6.20;99.90
16511;DHT22;8368;48.772;8.754;2022-12-18T08:54:24;-6.20;99.90
16511;DHT22;8368;48.772;8.754;2022-12-18T08:56:49;-6.10;99.90
16511;DHT22;8368;48.772;8.754;2022-12-18T08:59:19;-6.00;99.90
16511;DHT22;8368;48.772;8.754;2022-12-18T09:01:45;-5.90;99.90
16511;DHT22;8368;48.772;8.754;2022-12-18T09:04:11;-5.90;99.90
16511;DHT22;8368;48.772;8.754;2022-12-18T09:06:37;-5.80;99.90
16511;DHT22;8368;48.772;8.754;2022-12-18T09:09:04;-5.80;99.90
16511;DHT22;8368;48.772;8.754;2022-12-18T09:11:31;-5.90;99.90
16511;DHT22;8368;48.772;8.754;2022-12-18T09:13:57;-5.80;99.90
16511;DHT22;8368;48.772;8.754;2022-12-18T09:16:24;-5.80;99.90
16511;DHT22;8368;48.772;8.754;2022-12-18T09:18:50;-5.70;99.90
16511;DHT22;8368;48.772;8.754;2022-12-18T09:21:20;-5.60;99.90
16511;DHT22;8368;48.772;8.754;2022-12-18T09:23:50;-5.60;99.90
16511;DHT22;8368;48.772;8.754;2022-12-18T09:26:16;-5.60;99.90
16511;DHT22;8368;48.772;8.754;2022-12-18T09:28:42;-5.60;99.90
16511;DHT22;8368;48.772;8.754;2022-12-18T09:31:08;-5.50;99.90
16511;DHT22;8368;48.772;8.754;2022-12-18T09:33:36;-5.40;99.90
16511;DHT22;8368;48.772;8.754;2022-12-18T09:36:06;-5.30;99.90
16511;DHT22;8368;48.772;8.754;2022-12-18T09:38:34;-5.30;99.90
16511;DHT22;8368;48.772;8.754;2022-12-18T09:41:04;-5.30;99.90
16511;DHT22;8368;48.772;8.754;2022-12-18T09:43:36;-5.20;99.90
16511;DHT22;8368;48.772;8.754;2022-12-18T09:46:06;-5.20;99.90
16511;DHT22;8368;48.772;8.754;2022-12-18T09:48:37;-5.10;99.90
16511;DHT22;8368;48.772;8.754;2022-12-18T09:51:35;-5.10;99.90
16511;DHT22;8368;48.772;8.754;2022-12-18T09:54:25;-5.10;99.90
16511;DHT22;8368;48.772;8.754;2022-12-18T09:56:51;-5.10;99.90
16511;DHT22;8368;48.772;8.754;2022-12-18T09:59:38;-5.00;99.90
16511;DHT22;8368;48.772;8.754;2022-12-18T10:02:15;-4.90;99.90
16511;DHT22;8368;48.772;8.754;2022-12-18T10:04:42;-4.80;99.90
16511;DHT22;8368;48.772;8.754;2022-12-18T10:07:19;-4.70;99.90
16511;DHT22;8368;48.772;8.754;2022-12-18T10:10:02;-4.60;99.90
16511;DHT22;8368;48.772;8.754;2022-12-18T10:21:13;-4.40;99.90
16511;DHT22;8368;48.772;8.754;2022-12-18T10:23:47;-4.40;99.90
16511;DHT22;8368;48.772;8.754;2022-12-18T10:26:17;-4.30;99.90
16511;DHT22;8368;48.772;8.754;2022-12-18T10:28:43;-4.20;99.90
16511;DHT22;8368;48.772;8.754;2022-12-18T10:31:17;-4.20;99.90
16511;DHT22;8368;48.772;8.754;2022-12-18T10:33:43;-4.10;99.90
16511;DHT22;8368;48.772;8.754;2022-12-18T10:36:09;-4.00;99.90
16511;DHT22;8368;48.772;8.754;2022-12-18T10:38:35;-4.00;99.90
16511;DHT22;8368;48.772;8.754;2022-12-18T10:41:24;-4.00;99.90
16511;DHT22;8368;48.772;8.754;2022-12-18T10:44:21;-3.90;99.90
16511;DHT22;8368;48.772;8.754;2022-12-18T10:46:49;-3.80;99.90
16511;DHT22;8368;48.772;8.754;2022-12-18T10:49:21;-3.60;99.90
16511;DHT22;8368;48.772;8.754;2022-12-18T10:51:47;-3.60;99.90
16511;DHT22;8368;48.772;8.754;2022-12-18T10:54:22;-3.60;99.90
16511;DHT22;8368;48.772;8.754;2022-12-18T10:56:48;-3.60;99.90
16511;DHT22;8368;48.772;8.754;2022-12-18T10:59:16;-3.60;99.90
16511;DHT22;8368;48.772;8.754;2022-12-18T11:04:23;-3.50;99.90
16511;DHT22;8368;48.772;8.754;2022-12-18T11:06:59;-3.40;99.90
16511;DHT22;8368;48.772;8.754;2022-12-18T11:09:36;-3.30;99.90
16511;DHT22;8368;48.772;8.754;2022-12-18T11:12:08;-3.30;99.90
16511;DHT22;8368;48.772;8.754;2022-12-18T11:14:47;-3.30;99.90
16511;DHT22;8368;48.772;8.754;2022-12-18T11:17:31;-3.30;99.90
16511;DHT22;8368;48.772;8.754;2022-12-18T11:20:29;-3.30;99.90
16511;DHT22;8368;48.772;8.754;2022-12-18T11:23:03;-3.30;99.90
16511;DHT22;8368;48.772;8.754;2022-12-18T11:25:30;-3.20;99.90
16511;DHT22;8368;48.772;8.754;2022-12-18T11:27:59;-3.10;99.90
16511;DHT22;8368;48.772;8.754;2022-12-18T11:30:36;-3.10;99.90
16511;DHT22;8368;48.772;8.754;2022-12-18T11:35:34;-3.00;99.90
16511;DHT22;8368;48.772;8.754;2022-12-18T11:38:16;-3.00;99.90
16511;DHT22;8368;48.772;8.754;2022-12-18T11:40:45;-3.00;99.90
16511;DHT22;8368;48.772;8.754;2022-12-18T11:46:11;-2.80;99.90
16511;DHT22;8368;48.772;8.754;2022-12-18T11:48:46;-2.80;99.90
16511;DHT22;8368;48.772;8.754;2022-12-18T11:54:40;-2.80;99.90
16511;DHT22;8368;48.772;8.754;2022-12-18T11:57:14;-2.80;99.90
16511;DHT22;8368;48.772;8.754;2022-12-18T12:00:07;-2.80;99.90
16511;DHT22;8368;48.772;8.754;2022-12-18T12:05:35;-2.80;99.90
16511;DHT22;8368;48.772;8.754;2022-12-18T12:19:48;-2.50;99.90
16511;DHT22;8368;48.772;8.754;2022-12-18T12:22:33;-2.50;99.90
16511;DHT22;8368;48.772;8.754;2022-12-18T12:25:21;-2.40;99.90
16511;DHT22;8368;48.772;8.754;2022-12-18T12:33:42;-2.40;99.90
16511;DHT22;8368;48.772;8.754;2022-12-18T12:36:23;-2.40;99.90
16511;DHT22;8368;48.772;8.754;2022-12-18T12:38:55;-2.40;99.90
16511;DHT22;8368;48.772;8.754;2022-12-18T12:41:27;-2.40;99.90
16511;DHT22;8368;48.772;8.754;2022-12-18T12:44:18;-2.40;99.90
16511;DHT22;8368;48.772;8.754;2022-12-18T12:46:46;-2.40;99.90
16511;DHT22;8368;48.772;8.754;2022-12-18T12:49:17;-2.30;99.90
16511;DHT22;8368;48.772;8.754;2022-12-18T12:51:47;-2.30;99.90
16511;DHT22;8368;48.772;8.754;2022-12-18T12:54:21;-2.30;99.90
16511;DHT22;8368;48.772;8.754;2022-12-18T12:56:53;-2.20;99.90
16511;DHT22;8368;48.772;8.754;2022-12-18T13:04:56;-2.10;99.90
16511;DHT22;8368;48.772;8.754;2022-12-18T13:07:33;-2.10;99.90
16511;DHT22;8368;48.772;8.754;2022-12-18T13:13:03;-2.00;99.90
16511;DHT22;8368;48.772;8.754;2022-12-18T13:25:59;-1.90;99.90
16511;DHT22;8368;48.772;8.754;2022-12-18T13:31:12;-2.00;99.90
16511;DHT22;8368;48.772;8.754;2022-12-18T13:33:40;-2.00;99.90
16511;DHT22;8368;48.772;8.754;2022-12-18T13:36:16;-2.00;99.90
16511;DHT22;8368;48.772;8.754;2022-12-18T13:38:43;-2.00;99.90
16511;DHT22;8368;48.772;8.754;2022-12-18T13:43:45;-1.90;99.90
16511;DHT22;8368;48.772;8.754;2022-12-18T13:48:57;-1.90;99.90
16511;DHT22;8368;48.772;8.754;2022-12-18T13:51:25;-1.90;99.90
16511;DHT22;8368;48.772;8.754;2022-12-18T13:53:54;-1.90;99.90
16511;DHT22;8368;48.772;8.754;2022-12-18T13:56:29;-1.90;99.90
16511;DHT22;8368;48.772;8.754;2022-12-18T13:59:14;-2.00;99.90
16511;DHT22;8368;48.772;8.754;2022-12-18T14:04:32;-2.10;99.90
16511;DHT22;8368;48.772;8.754;2022-12-18T14:07:06;-2.10;99.90
16511;DHT22;8368;48.772;8.754;2022-12-18T14:09:43;-2.10;99.90
16511;DHT22;8368;48.772;8.754;2022-12-18T14:12:31;-2.10;99.90
16511;DHT22;8368;48.772;8.754;2022-12-18T14:15:40;-2.10;99.90
16511;DHT22;8368;48.772;8.754;2022-12-18T14:18:22;-2.00;99.90
16511;DHT22;8368;48.772;8.754;2022-12-18T14:20:50;-2.10;99.90
16511;DHT22;8368;48.772;8.754;2022-12-18T14:23:35;-2.10;99.90
16511;DHT22;8368;48.772;8.754;2022-12-18T14:26:03;-2.10;99.90
16511;DHT22;8368;48.772;8.754;2022-12-18T14:28:29;-2.20;99.90
16511;DHT22;8368;48.772;8.754;2022-12-18T14:30:55;-2.30;99.90
16511;DHT22;8368;48.772;8.754;2022-12-18T14:33:24;-2.30;99.90
16511;DHT22;8368;48.772;8.754;2022-12-18T14:35:58;-2.30;99.90
16511;DHT22;8368;48.772;8.754;2022-12-18T14:38:29;-2.30;99.90
16511;DHT22;8368;48.772;8.754;2022-12-18T14:43:30;-2.30;99.90
16511;DHT22;8368;48.772;8.754;2022-12-18T14:45:57;-2.30;99.90
16511;DHT22;8368;48.772;8.754;2022-12-18T14:48:33;-2.40;99.90
16511;DHT22;8368;48.772;8.754;2022-12-18T14:51:02;-2.40;99.90
16511;DHT22;8368;48.772;8.754;2022-12-18T14:53:34;-2.50;99.90
16511;DHT22;8368;48.772;8.754;2022-12-18T14:56:02;-2.50;99.90
16511;DHT22;8368;48.772;8.754;2022-12-18T14:58:28;-2.50;99.90
16511;DHT22;8368;48.772;8.754;2022-12-18T15:00:53;-2.60;99.90
16511;DHT22;8368;48.772;8.754;2022-12-18T15:03:20;-2.60;99.90
16511;DHT22;8368;48.772;8.754;2022-12-18T15:05:49;-2.70;99.90
16511;DHT22;8368;48.772;8.754;2022-12-18T15:08:37;-2.70;99.90
16511;DHT22;8368;48.772;8.754;2022-12-18T15:11:03;-2.70;99.90
16511;DHT22;8368;48.772;8.754;2022-12-18T15:13:28;-2.80;99.90
16511;DHT22;8368;48.772;8.754;2022-12-18T15:16:00;-2.80;99.90
16511;DHT22;8368;48.772;8.754;2022-12-18T15:18:32;-2.90;99.90
16511;DHT22;8368;48.772;8.754;2022-12-18T15:21:09;-2.90;99.90
16511;DHT22;8368;48.772;8.754;2022-12-18T15:26:12;-3.00;99.90
16511;DHT22;8368;48.772;8.754;2022-12-18T15:36:20;-3.20;99.90
16511;DHT22;8368;48.772;8.754;2022-12-18T15:38:47;-3.20;99.90
16511;DHT22;8368;48.772;8.754;2022-12-18T15:41:14;-3.20;99.90
16511;DHT22;8368;48.772;8.754;2022-12-18T15:43:41;-3.20;99.90
16511;DHT22;8368;48.772;8.754;2022-12-18T15:46:14;-3.20;99.90
16511;DHT22;8368;48.772;8.754;2022-12-18T15:48:43;-3.20;99.90
16511;DHT22;8368;48.772;8.754;2022-12-18T15:51:20;-3.20;99.90
16511;DHT22;8368;48.772;8.754;2022-12-18T15:53:47;-3.10;99.90
16511;DHT22;8368;48.772;8.754;2022-12-18T15:56:15;-3.20;99.90
16511;DHT22;8368;48.772;8.754;2022-12-18T15:58:59;-3.20;99.90
16511;DHT22;8368;48.772;8.754;2022-12-18T16:01:27;-3.20;99.90
16511;DHT22;8368;48.772;8.754;2022-12-18T16:03:53;-3.20;99.90
16511;DHT22;8368;48.772;8.754;2022-12-18T16:06:19;-3.20;99.90
16511;DHT22;8368;48.772;8.754;2022-12-18T16:08:45;-3.30;99.90
16511;DHT22;8368;48.772;8.754;2022-12-18T16:11:23;-3.20;99.90
16511;DHT22;8368;48.772;8.754;2022-12-18T16:14:20;-3.20;99.90
16511;DHT22;8368;48.772;8.754;2022-12-18T16:16:48;-3.20;99.90
16511;DHT22;8368;48.772;8.754;2022-12-18T16:19:13;-3.20;99.90
16511;DHT22;8368;48.772;8.754;2022-12-18T16:21:39;-3.20;99.90
16511;DHT22;8368;48.772;8.754;2022-12-18T16:24:05;-3.10;99.90
16511;DHT22;8368;48.772;8.754;2022-12-18T16:26:34;-3.10;99.90
16511;DHT22;8368;48.772;8.754;2022-12-18T16:28:59;-3.10;99.90
16511;DHT22;8368;48.772;8.754;2022-12-18T16:31:25;-3.10;99.90
16511;DHT22;8368;48.772;8.754;2022-12-18T16:34:18;-3.00;99.90
16511;DHT22;8368;48.772;8.754;2022-12-18T16:36:47;-2.90;99.90
16511;DHT22;8368;48.772;8.754;2022-12-18T16:39:12;-2.90;99.90
16511;DHT22;8368;48.772;8.754;2022-12-18T16:41:38;-2.80;99.90
16511;DHT22;8368;48.772;8.754;2022-12-18T16:44:04;-2.80;99.90
16511;DHT22;8368;48.772;8.754;2022-12-18T16:46:29;-2.80;99.90
16511;DHT22;8368;48.772;8.754;2022-12-18T16:48:57;-2.70;99.90
16511;DHT22;8368;48.772;8.754;2022-12-18T16:51:23;-2.80;99.90
16511;DHT22;8368;48.772;8.754;2022-12-18T16:53:49;-2.70;99.90
16511;DHT22;8368;48.772;8.754;2022-12-18T16:56:14;-2.70;99.90
16511;DHT22;8368;48.772;8.754;2022-12-18T16:58:40;-2.70;99.90
16511;DHT22;8368;48.772;8.754;2022-12-18T17:01:10;-2.70;99.90
16511;DHT22;8368;48.772;8.754;2022-12-18T17:03:36;-2.70;99.90
16511;DHT22;8368;48.772;8.754;2022-12-18T17:06:05;-2.60;99.90
16511;DHT22;8368;48.772;8.754;2022-12-18T17:08:31;-2.60;99.90
16511;DHT22;8368;48.772;8.754;2022-12-18T17:11:03;-2.60;99.90
16511;DHT22;8368;48.772;8.754;2022-12-18T17:13:29;-2.60;99.90
16511;DHT22;8368;48.772;8.754;2022-12-18T17:15:54;-2.60;99.90
16511;DHT22;8368;48.772;8.754;2022-12-18T17:18:22;-2.50;99.90
16511;DHT22;8368;48.772;8.754;2022-12-18T17:20:47;-2.50;99.90
16511;DHT22;8368;48.772;8.754;2022-12-18T17:23:13;-2.50;99.90
16511;DHT22;8368;48.772;8.754;2022-12-18T17:25:39;-2.50;99.90
16511;DHT22;8368;48.772;8.754;2022-12-18T17:28:04;-2.60;99.90
16511;DHT22;8368;48.772;8.754;2022-12-18T17:30:30;-2.60;99.90
16511;DHT22;8368;48.772;8.754;2022-12-18T17:32:55;-2.60;99.90
16511;DHT22;8368;48.772;8.754;2022-12-18T17:35:21;-2.60;99.90
16511;DHT22;8368;48.772;8.754;2022-12-18T17:37:46;-2.60;99.90
16511;DHT22;8368;48.772;8.754;2022-12-18T17:40:13;-2.60;99.90
16511;DHT22;8368;48.772;8.754;2022-12-18T17:42:38;-2.50;99.90
16511;DHT22;8368;48.772;8.754;2022-12-18T17:45:04;-2.60;99.90